WAGO2: Chouteau Lock And Dam (L&D 17)

Data processed at Sun May 28 2017 22:33


All information presented herein is the property of the government of the United States of America and may be revised or deleted at any time without prior notice.
Dissemination of this information without the expressed written consent of the Public Affairs Office, Tulsa District U.S. Army Corps of Engineers is strictly prohibited.
These data are gathered electronically and, as presented, have not undergone any form of quality control. These data are not guaranteed to be valid or correct.
Go to home page.
Go to station list.
Go to home page.

Upstream stations:

Downstream station:
Previous Day
Next Day
Current Day
    
SHEF ID:       WAGO2     Chouteau Lock And Dam (L&D 17)
STATION TYPE:  NAVIGATION LOCK
Normal Pool:  Bottom =   511.50, Top =   511.50

               PRECIP ELEVATION   STORAGE   TW-ELEV    INFLOW   RELEASE  AIR-TEMP  WIND-DIRWIND-SPEED REL-HUMID SOLAR-RAD   VOLTAGE  BAT-LOAD
                   in        ft     ac-ft        ft       cfs       cfs         F       deg       mph         %      W/m2      volt      volt
              Ccp-Rev   Ccp-Rev   Ccp-Rev   Ccp-Rev  Regi-Rev  Regi-Rev   Ccp-Rev   Ccp-Rev   Ccp-Rev   Ccp-Rev   Ccp-Rev   Ccp-Rev   Ccp-Rev
(US/Central)
05/28 00:00      0.00    511.79     24363    501.34      9096     15900     71.71     13.00      6.01     81.53     11.00     13.80     13.24
05/28 01:00      0.00    511.72     24204    501.32      6225     15901     71.20    301.00      8.24     88.22     11.00     13.80     13.12
05/28 02:00      0.00    511.49     23682    501.58      3470     15900     69.85    325.00     15.26     99.19     12.00     13.80     13.24
05/28 03:00      0.00    511.51     23728    501.60       158     15900     69.44    354.00     12.09     97.84     11.00     13.80     13.24
05/28 04:00      0.00    511.62     23977    501.57       163     15900     67.88    314.00      6.68     94.80     11.00     13.80     13.24
05/28 05:00      0.00    511.60     23932    501.58       180     15900     67.22    321.00      8.11     96.11     10.00     13.80     13.24
05/28 06:00      0.00    511.62     23977    501.57       179     15900     65.59    323.00     14.75     99.31     11.00     13.80     13.24
05/28 07:00      0.00    511.68     24114    501.59       174     15900     65.35    329.00      9.62     99.29     58.00     13.80     13.30
05/28 08:00      0.00    511.67     24091    501.59       179     15900     66.70     14.00     11.51     98.99    367.00     13.80     13.30
05/28 09:00      0.00    511.70     24159    501.61       179     15900     69.77     33.00      9.21     86.66    519.00     13.80     13.24
05/28 10:00      0.00    511.76     24295    501.62       173     15900     71.90    212.00      0.00     74.95    768.00     13.80     13.24
05/28 11:00      0.00    511.78     24341    501.64       180     15900     73.05    309.00     15.13     69.62    971.00     13.80     13.12
05/28 12:00      0.00    511.74     24250    501.75       171     15900     74.77    312.00     14.14     60.36   1039.00     13.80     13.24
05/28 13:00      0.00    511.86     24522    501.80       175     15900     76.58    309.00     14.09     55.91   1143.00     13.80     13.12
05/28 14:00      0.00    511.73     24227    501.82       181     15900     77.66    287.00      8.56     49.28   1154.00     13.80     21.13
05/28 15:00      0.00    511.86     24522    501.85       183     15900     78.54    316.00     14.33     45.43   1063.00     13.80     12.54
05/28 16:00      0.00    511.98     24795    501.93       176     15900     79.23     21.00     12.07     42.84    872.00     13.80     13.24
05/28 17:00      0.00    511.97     24772    501.89       185     15900     79.69    307.00     14.78     43.68    712.00     13.80     13.24
05/28 18:00      0.00    511.98     24795    501.95       144     15900     79.30    351.00     12.32     47.32    509.00     13.80     13.24
05/28 19:00      0.00    512.00     24840    501.97       138     15900     78.36    327.00      7.57     47.42    279.00     13.80     13.24
05/28 20:00      0.00    511.99     24817    501.98      -901      -901     76.85      1.00      4.09     50.14     80.00     13.80     13.24
05/28 21:00      0.00    512.01     24866    502.02      ----      ----     67.66    106.00      0.00     94.05      9.00     13.80     13.30
05/28 22:00      ----      ----      ----      ----      ----      ----      ----      ----      ----      ----      ----      ----      ----
05/28 23:00      ----      ----      ----      ----      ----      ----      ----      ----      ----      ----      ----      ----      ----